createdAt,value
2023-05-24T00:00:29.866Z,82.10
2023-05-24T00:02:58.890Z,82.40
2023-05-24T00:05:26.834Z,82.60
2023-05-24T00:07:54.710Z,82.70
2023-05-24T00:10:22.622Z,82.70
2023-05-24T00:12:51.560Z,83.00
2023-05-24T00:15:20.759Z,82.60
2023-05-24T00:17:48.632Z,83.10
2023-05-24T00:20:17.240Z,82.90
2023-05-24T00:22:45.142Z,82.80
2023-05-24T00:25:13.118Z,82.60
2023-05-24T00:27:40.969Z,82.80
2023-05-24T00:30:09.375Z,83.00
2023-05-24T00:32:38.600Z,83.00
2023-05-24T00:35:07.379Z,83.50
2023-05-24T00:37:35.252Z,83.30
2023-05-24T00:40:04.294Z,83.10
2023-05-24T00:42:32.263Z,83.10
2023-05-24T00:45:00.174Z,83.60
2023-05-24T00:47:28.269Z,83.50
2023-05-24T00:49:58.060Z,83.50
2023-05-24T00:52:26.173Z,83.80
2023-05-24T00:54:54.291Z,83.70
2023-05-24T00:57:23.878Z,83.90
2023-05-24T00:59:52.226Z,84.00
2023-05-24T01:02:20.806Z,84.00
2023-05-24T01:04:49.194Z,84.20
2023-05-24T01:07:27.786Z,83.90
2023-05-24T01:10:08.891Z,84.40
2023-05-24T01:12:47.877Z,84.30
2023-05-24T01:15:22.073Z,84.20
2023-05-24T01:18:01.778Z,84.40
2023-05-24T01:20:33.304Z,84.80
2023-05-24T01:23:19.129Z,84.90
2023-05-24T01:25:53.800Z,84.40
2023-05-24T01:28:24.963Z,84.30
2023-05-24T01:30:53.343Z,84.20
2023-05-24T01:33:21.949Z,84.10
2023-05-24T01:35:49.825Z,83.40
2023-05-24T01:38:17.754Z,83.60
2023-05-24T01:40:48.130Z,83.20
2023-05-24T01:43:19.606Z,83.30
2023-05-24T01:45:59.147Z,83.30
2023-05-24T01:48:40.686Z,83.30
2023-05-24T01:51:11.684Z,83.60
2023-05-24T01:53:46.472Z,83.70
2023-05-24T01:56:15.004Z,83.30
2023-05-24T01:58:46.514Z,83.40
2023-05-24T02:01:16.051Z,83.30
2023-05-24T02:03:43.999Z,83.10
2023-05-24T02:06:11.852Z,82.90
2023-05-24T02:08:39.715Z,83.40
2023-05-24T02:11:07.662Z,83.60
2023-05-24T02:13:35.870Z,83.60
2023-05-24T02:16:05.095Z,83.70
2023-05-24T02:18:34.926Z,83.80
2023-05-24T02:21:03.192Z,83.40
2023-05-24T02:23:31.625Z,83.60
2023-05-24T02:25:59.473Z,83.90
2023-05-24T02:28:28.318Z,83.90
2023-05-24T02:30:56.291Z,83.90
2023-05-24T02:33:25.593Z,84.00
2023-05-24T02:35:54.809Z,83.50
2023-05-24T02:38:22.715Z,83.50
2023-05-24T02:40:50.670Z,83.00
2023-05-24T02:43:18.660Z,83.10
2023-05-24T02:45:46.637Z,82.90
2023-05-24T02:48:14.542Z,82.90
2023-05-24T02:50:42.588Z,83.10
2023-05-24T02:53:12.010Z,83.10
2023-05-24T02:55:39.841Z,83.30
2023-05-24T02:58:08.376Z,83.20
2023-05-24T03:00:37.120Z,83.20
2023-05-24T03:03:05.096Z,83.10
2023-05-24T03:05:32.980Z,83.20
2023-05-24T03:08:00.809Z,83.30
2023-05-24T03:10:29.993Z,83.50
2023-05-24T03:12:57.814Z,83.70
2023-05-24T03:15:25.758Z,83.60
2023-05-24T03:17:53.629Z,83.80
2023-05-24T03:20:23.567Z,83.60
2023-05-24T03:22:51.479Z,83.40
2023-05-24T03:25:19.743Z,83.20
2023-05-24T03:27:49.131Z,83.00
2023-05-24T03:30:17.123Z,82.80
2023-05-24T03:32:44.993Z,83.00
2023-05-24T03:35:13.015Z,82.10
2023-05-24T03:37:40.917Z,81.40
2023-05-24T03:40:09.853Z,81.60
2023-05-24T03:42:37.704Z,81.70
2023-05-24T03:45:08.040Z,81.00
2023-05-24T03:47:36.015Z,80.70
2023-05-24T03:50:04.007Z,81.10
2023-05-24T03:52:31.884Z,80.80
2023-05-24T03:54:59.736Z,80.80
2023-05-24T03:57:27.636Z,81.00
2023-05-24T03:59:55.561Z,80.70
2023-05-24T04:02:24.860Z,80.90
2023-05-24T04:04:53.216Z,80.50
2023-05-24T04:07:24.416Z,80.50
2023-05-24T04:09:52.236Z,80.40
2023-05-24T04:12:20.091Z,80.20
2023-05-24T04:14:47.945Z,80.20
2023-05-24T04:17:15.928Z,80.50
2023-05-24T04:19:46.750Z,80.50
2023-05-24T04:22:14.578Z,80.30
2023-05-24T04:24:42.435Z,80.10
2023-05-24T04:27:10.867Z,80.30
2023-05-24T04:29:40.118Z,80.40
2023-05-24T04:32:10.108Z,80.40
2023-05-24T04:34:42.567Z,80.00
2023-05-24T04:37:11.748Z,80.00
2023-05-24T04:39:39.565Z,80.10
2023-05-24T04:42:08.252Z,79.50
2023-05-24T04:44:36.113Z,80.00
2023-05-24T04:47:04.075Z,80.00
2023-05-24T04:49:32.157Z,79.80
2023-05-24T04:52:00.162Z,79.70
2023-05-24T04:54:29.447Z,79.90
2023-05-24T04:56:57.475Z,80.00
2023-05-24T04:59:25.882Z,79.30
2023-05-24T05:01:53.809Z,79.30
2023-05-24T05:04:21.752Z,78.90
2023-05-24T05:06:50.012Z,78.80
2023-05-24T05:09:18.947Z,78.90
2023-05-24T05:11:49.237Z,78.50
2023-05-24T05:14:17.503Z,78.30
2023-05-24T05:16:46.453Z,77.50
2023-05-24T05:19:14.549Z,77.20
2023-05-24T05:21:42.540Z,77.00
2023-05-24T05:24:10.353Z,77.50
2023-05-24T05:26:38.178Z,77.00
2023-05-24T05:29:07.377Z,76.10
2023-05-24T05:31:36.097Z,76.80
2023-05-24T05:34:04.000Z,77.20
2023-05-24T05:36:32.326Z,76.60
2023-05-24T05:39:00.222Z,76.20
2023-05-24T05:41:28.327Z,76.70
2023-05-24T05:43:56.393Z,76.80
2023-05-24T05:46:25.590Z,77.10
2023-05-24T05:48:53.558Z,76.80
2023-05-24T05:51:21.405Z,76.60
2023-05-24T05:53:49.244Z,77.00
2023-05-24T05:56:17.646Z,77.30
2023-05-24T05:58:45.477Z,77.70
2023-05-24T06:01:13.402Z,77.40
2023-05-24T06:03:42.728Z,77.00
2023-05-24T06:06:10.805Z,76.00
2023-05-24T06:08:40.802Z,76.10
2023-05-24T06:11:08.631Z,76.30
2023-05-24T06:13:36.439Z,76.00
2023-05-24T06:16:04.378Z,76.10
2023-05-24T06:18:32.725Z,75.00
2023-05-24T06:21:01.935Z,75.50
2023-05-24T06:23:29.987Z,74.50
2023-05-24T06:25:57.826Z,74.40
2023-05-24T06:28:25.685Z,74.90
2023-05-24T06:30:53.599Z,75.00
2023-05-24T06:33:22.314Z,75.40
2023-05-24T06:35:50.194Z,75.70
2023-05-24T06:38:19.396Z,75.70
2023-05-24T06:40:47.306Z,75.50
2023-05-24T06:43:15.163Z,76.00
2023-05-24T06:45:43.099Z,75.90
2023-05-24T06:48:11.022Z,75.50
2023-05-24T06:50:41.649Z,74.60
2023-05-24T06:53:10.688Z,74.30
2023-05-24T06:55:39.897Z,74.70
2023-05-24T06:58:07.941Z,74.00
2023-05-24T07:00:35.772Z,74.10
2023-05-24T07:03:04.010Z,73.60
2023-05-24T07:05:31.886Z,72.20
2023-05-24T07:07:59.754Z,70.10
2023-05-24T07:10:27.597Z,70.80
2023-05-24T07:12:56.818Z,69.60
2023-05-24T07:15:24.694Z,69.10
2023-05-24T07:17:52.831Z,69.60
2023-05-24T07:20:20.819Z,70.00
2023-05-24T07:22:48.879Z,70.20
2023-05-24T07:25:17.378Z,70.20
2023-05-24T07:27:45.241Z,70.50
2023-05-24T07:30:27.897Z,69.80
2023-05-24T07:32:59.648Z,70.60
2023-05-24T07:35:28.615Z,70.50
2023-05-24T07:37:56.516Z,69.80
2023-05-24T07:40:24.579Z,71.10
2023-05-24T07:42:52.501Z,69.90
2023-05-24T07:45:22.011Z,70.10
2023-05-24T07:47:49.871Z,69.80
2023-05-24T07:50:18.449Z,69.70
2023-05-24T07:52:46.271Z,67.90
2023-05-24T07:55:14.524Z,67.50
2023-05-24T07:57:42.721Z,68.20
2023-05-24T08:00:14.694Z,68.80
2023-05-24T08:02:46.303Z,68.80
2023-05-24T08:05:14.676Z,67.50
2023-05-24T08:07:42.731Z,68.10
2023-05-24T08:10:12.629Z,67.50
2023-05-24T08:12:40.604Z,68.40
2023-05-24T08:15:09.425Z,68.00
2023-05-24T08:17:37.519Z,66.60
2023-05-24T08:20:08.923Z,67.00
2023-05-24T08:22:37.270Z,66.90
2023-05-24T08:25:06.173Z,66.40
2023-05-24T08:27:34.881Z,66.30
2023-05-24T08:30:04.278Z,67.40
2023-05-24T08:32:32.190Z,66.40
2023-05-24T08:35:17.573Z,64.90
2023-05-24T08:37:49.546Z,66.00
2023-05-24T08:40:18.187Z,65.80
2023-05-24T08:42:46.655Z,66.40
2023-05-24T08:45:16.387Z,64.80
2023-05-24T08:47:44.628Z,64.70
2023-05-24T08:50:13.700Z,66.40
2023-05-24T08:52:43.008Z,67.20
2023-05-24T08:55:12.739Z,66.10
2023-05-24T08:57:41.873Z,67.30
2023-05-24T09:00:12.751Z,67.40
2023-05-24T09:02:42.690Z,67.40
2023-05-24T09:05:12.600Z,68.80
2023-05-24T09:07:41.860Z,69.50
2023-05-24T09:10:12.088Z,69.80
2023-05-24T09:12:41.610Z,71.10
2023-05-24T09:15:10.085Z,72.50
2023-05-24T09:17:39.114Z,72.00
2023-05-24T09:20:10.078Z,72.70
2023-05-24T09:22:41.067Z,71.40
2023-05-24T09:25:10.832Z,70.80
2023-05-24T09:27:40.178Z,70.50
2023-05-24T09:30:11.029Z,70.60
2023-05-24T09:32:39.456Z,71.10
2023-05-24T09:35:10.611Z,70.60
2023-05-24T09:37:40.443Z,70.80
2023-05-24T09:40:18.918Z,71.30
2023-05-24T09:42:51.413Z,71.70
2023-05-24T09:45:19.424Z,72.30
2023-05-24T09:47:47.338Z,72.10
2023-05-24T09:50:16.555Z,71.80
2023-05-24T09:52:45.009Z,71.70
2023-05-24T09:55:13.905Z,71.50
2023-05-24T09:57:42.189Z,71.10
2023-05-24T10:00:17.693Z,70.40
2023-05-24T10:02:53.586Z,70.30
2023-05-24T10:05:22.478Z,68.80
2023-05-24T10:07:50.518Z,68.80
2023-05-24T10:10:18.437Z,69.20
2023-05-24T10:12:47.588Z,68.20
2023-05-24T10:15:16.944Z,68.50
2023-05-24T10:17:44.878Z,68.30
2023-05-24T10:20:13.356Z,68.00
2023-05-24T10:22:44.534Z,68.90
2023-05-24T10:25:18.064Z,69.20
2023-05-24T10:27:47.176Z,67.30
2023-05-24T10:30:25.925Z,66.10
2023-05-24T10:32:56.928Z,66.90
2023-05-24T10:35:27.411Z,66.80
2023-05-24T10:37:55.784Z,66.80
2023-05-24T10:40:26.039Z,66.20
2023-05-24T10:42:54.970Z,67.70
2023-05-24T10:45:35.764Z,67.70
2023-05-24T10:48:11.264Z,67.80
2023-05-24T10:50:39.207Z,67.70
2023-05-24T10:53:14.590Z,67.30
2023-05-24T10:55:57.277Z,67.40
2023-05-24T10:58:30.658Z,65.70
2023-05-24T11:00:59.986Z,65.80
2023-05-24T11:03:34.772Z,66.70
2023-05-24T11:06:03.036Z,67.60
2023-05-24T11:08:33.144Z,66.40
2023-05-24T11:11:23.393Z,65.20
2023-05-24T11:13:57.798Z,64.90
2023-05-24T11:16:39.531Z,65.00
2023-05-24T11:19:18.473Z,66.00
2023-05-24T11:21:47.689Z,66.20
2023-05-24T11:24:17.432Z,66.90
2023-05-24T11:26:45.558Z,67.70
2023-05-24T11:29:17.523Z,68.00
2023-05-24T11:31:50.723Z,67.90
2023-05-24T11:34:18.629Z,68.00
2023-05-24T11:36:47.268Z,68.30
2023-05-24T11:39:16.239Z,69.20
2023-05-24T11:41:44.565Z,68.30
2023-05-24T11:44:13.521Z,68.00
2023-05-24T11:46:44.113Z,67.70
2023-05-24T11:49:15.944Z,67.70
2023-05-24T11:51:44.418Z,67.50
2023-05-24T11:54:12.620Z,65.30
2023-05-24T11:56:40.461Z,65.40
2023-05-24T11:59:14.466Z,65.10
2023-05-24T12:01:42.362Z,65.50
2023-05-24T12:04:10.919Z,66.70
2023-05-24T12:06:42.011Z,65.70
2023-05-24T12:09:13.445Z,65.20
2023-05-24T12:11:42.524Z,65.20
2023-05-24T12:14:14.188Z,65.20
2023-05-24T12:16:43.837Z,65.90
2023-05-24T12:19:31.406Z,65.40
2023-05-24T12:22:04.998Z,65.00
2023-05-24T12:24:33.422Z,65.30
2023-05-24T12:27:03.297Z,65.20
2023-05-24T12:29:35.325Z,64.50
2023-05-24T12:32:03.643Z,65.60
2023-05-24T12:34:31.645Z,64.90
2023-05-24T12:37:03.538Z,64.40
2023-05-24T12:39:34.123Z,64.10
2023-05-24T12:42:03.093Z,64.70
2023-05-24T12:44:32.329Z,64.10
2023-05-24T12:47:00.661Z,63.90
2023-05-24T12:49:28.657Z,63.80
2023-05-24T12:51:57.725Z,64.00
2023-05-24T12:54:28.389Z,63.90
2023-05-24T12:56:57.848Z,63.80
2023-05-24T12:59:27.255Z,64.10
2023-05-24T13:01:55.209Z,62.60
2023-05-24T13:04:26.291Z,64.00
2023-05-24T13:06:54.463Z,64.80
2023-05-24T13:09:23.440Z,64.40
2023-05-24T13:11:54.047Z,63.30
2023-05-24T13:14:22.170Z,64.80
2023-05-24T13:16:50.194Z,64.70
2023-05-24T13:19:18.088Z,65.60
2023-05-24T13:21:46.019Z,67.20
2023-05-24T13:24:15.745Z,66.50
2023-05-24T13:26:44.081Z,66.50
2023-05-24T13:31:45.014Z,65.70
2023-05-24T13:34:13.222Z,65.20
2023-05-24T13:36:41.996Z,64.60
2023-05-24T13:39:16.199Z,63.50
2023-05-24T13:41:45.183Z,61.50
2023-05-24T13:44:14.982Z,60.60
2023-05-24T13:46:43.339Z,61.50
2023-05-24T13:49:12.414Z,61.00
2023-05-24T13:51:40.798Z,59.70
2023-05-24T13:54:08.744Z,58.70
2023-05-24T13:56:37.159Z,56.50
2023-05-24T13:59:05.562Z,55.50
2023-05-24T14:01:36.964Z,55.20
2023-05-24T14:04:06.322Z,53.90
2023-05-24T14:06:37.498Z,53.10
2023-05-24T14:09:06.871Z,54.10
2023-05-24T14:11:34.683Z,53.00
2023-05-24T14:16:35.205Z,55.40
2023-05-24T14:19:03.320Z,55.00
2023-05-24T14:21:32.424Z,53.50
2023-05-24T14:24:00.757Z,53.00
2023-05-24T14:26:28.597Z,53.10
2023-05-24T14:28:57.048Z,53.10
2023-05-24T14:31:25.413Z,52.80
2023-05-24T14:33:54.723Z,51.90
2023-05-24T14:36:22.581Z,51.10
2023-05-24T14:38:50.919Z,49.50
2023-05-24T14:41:19.107Z,47.70
2023-05-24T14:43:46.931Z,49.20
2023-05-24T14:46:14.854Z,48.90
2023-05-24T14:48:42.698Z,49.40
2023-05-24T14:51:11.870Z,46.80
2023-05-24T14:53:39.700Z,48.50
2023-05-24T14:56:09.790Z,47.20
2023-05-24T14:58:37.677Z,47.10
2023-05-24T15:01:06.718Z,45.40
2023-05-24T15:03:34.776Z,45.00
2023-05-24T15:06:02.921Z,46.70
2023-05-24T15:08:32.134Z,48.60
2023-05-24T15:11:00.047Z,50.20
2023-05-24T15:13:27.892Z,50.40
2023-05-24T15:15:59.017Z,49.80
2023-05-24T15:18:27.994Z,49.70
2023-05-24T15:20:56.435Z,49.00
2023-05-24T15:23:26.546Z,47.40
2023-05-24T15:25:55.858Z,48.00
2023-05-24T15:28:26.033Z,49.10
2023-05-24T15:30:54.494Z,49.40
2023-05-24T15:33:22.472Z,49.40
2023-05-24T15:35:50.483Z,48.30
2023-05-24T15:38:18.677Z,49.10
2023-05-24T15:40:46.988Z,49.10
2023-05-24T15:43:16.537Z,49.30
2023-05-24T15:45:45.992Z,49.30
2023-05-24T15:48:14.047Z,48.00
2023-05-24T15:53:12.842Z,48.50
2023-05-24T15:55:40.745Z,49.90
2023-05-24T15:58:08.594Z,49.70
2023-05-24T16:00:37.752Z,49.50
2023-05-24T16:03:06.455Z,49.80
2023-05-24T16:05:34.408Z,50.10
2023-05-24T16:08:02.550Z,48.80
2023-05-24T16:10:30.779Z,48.30
2023-05-24T16:12:58.703Z,48.70
2023-05-24T16:15:29.864Z,48.40
2023-05-24T16:17:59.089Z,48.90
2023-05-24T16:20:26.909Z,48.60
2023-05-24T16:22:54.753Z,48.50
2023-05-24T16:25:22.734Z,48.80
2023-05-24T16:27:50.627Z,49.10
2023-05-24T16:30:18.484Z,48.90
2023-05-24T16:32:46.435Z,47.20
2023-05-24T16:35:15.628Z,48.60
2023-05-24T16:37:43.586Z,48.10
2023-05-24T16:40:12.406Z,47.10
2023-05-24T16:42:40.256Z,47.40
2023-05-24T16:45:08.752Z,47.90
2023-05-24T16:47:37.263Z,47.20
2023-05-24T16:50:05.864Z,46.50
2023-05-24T16:52:35.017Z,47.30
2023-05-24T16:55:04.984Z,47.30
2023-05-24T16:57:32.799Z,47.30
2023-05-24T17:00:00.608Z,47.30
2023-05-24T17:02:28.589Z,48.10
2023-05-24T17:04:56.555Z,48.20
2023-05-24T17:07:24.635Z,48.30
2023-05-24T17:09:53.899Z,48.60
2023-05-24T17:12:22.094Z,48.10
2023-05-24T17:14:49.936Z,48.20
2023-05-24T17:17:17.871Z,47.50
2023-05-24T17:19:45.697Z,48.30
2023-05-24T17:22:13.621Z,47.80
2023-05-24T17:24:41.414Z,48.00
2023-05-24T17:27:10.589Z,48.20
2023-05-24T17:29:38.432Z,46.90
2023-05-24T17:32:06.761Z,48.30
2023-05-24T17:34:34.615Z,47.30
2023-05-24T17:37:02.716Z,48.00
2023-05-24T17:39:30.820Z,48.20
2023-05-24T17:41:58.647Z,47.80
2023-05-24T17:44:27.969Z,47.90
2023-05-24T17:46:57.423Z,47.80
2023-05-24T17:49:25.366Z,47.30
2023-05-24T17:51:53.256Z,47.70
2023-05-24T17:54:22.461Z,47.10
2023-05-24T17:56:50.287Z,48.20
2023-05-24T17:59:18.161Z,47.80
2023-05-24T18:01:48.033Z,48.30
2023-05-24T18:04:16.360Z,47.60
2023-05-24T18:06:45.331Z,48.10
2023-05-24T18:09:13.188Z,48.30
2023-05-24T18:11:41.464Z,48.20
2023-05-24T18:14:09.371Z,47.20
2023-05-24T18:16:37.236Z,47.40
2023-05-24T18:19:06.457Z,47.40
2023-05-24T18:21:34.282Z,47.30
2023-05-24T18:24:02.105Z,47.40
2023-05-24T18:26:29.944Z,47.70
2023-05-24T18:28:57.773Z,48.70
2023-05-24T18:31:25.658Z,49.70
2023-05-24T18:33:53.694Z,50.80
2023-05-24T18:36:22.884Z,51.40
2023-05-24T18:38:50.889Z,52.50
2023-05-24T18:41:18.924Z,52.40
2023-05-24T18:43:46.849Z,52.60
2023-05-24T18:46:15.916Z,53.00
2023-05-24T18:48:43.903Z,53.40
2023-05-24T18:51:12.447Z,53.50
2023-05-24T18:53:41.633Z,54.00
2023-05-24T18:56:09.573Z,54.50
2023-05-24T18:58:37.413Z,55.00
2023-05-24T19:01:05.381Z,55.20
2023-05-24T19:03:33.354Z,55.90
2023-05-24T19:06:01.259Z,56.70
2023-05-24T19:08:29.098Z,57.30
2023-05-24T19:10:58.317Z,57.00
2023-05-24T19:13:27.492Z,57.80
2023-05-24T19:15:55.429Z,57.50
2023-05-24T19:18:23.316Z,57.10
2023-05-24T19:20:51.198Z,57.90
2023-05-24T19:23:19.033Z,59.40
2023-05-24T19:25:50.060Z,60.70
2023-05-24T19:28:19.528Z,61.30
2023-05-24T19:30:47.352Z,62.20
2023-05-24T19:33:15.281Z,63.10
2023-05-24T19:35:43.286Z,63.30
2023-05-24T19:38:12.019Z,63.40
2023-05-24T19:40:40.136Z,64.10
2023-05-24T19:43:07.979Z,64.80
2023-05-24T19:45:37.139Z,65.20
2023-05-24T19:48:06.804Z,65.10
2023-05-24T19:50:34.677Z,66.30
2023-05-24T19:53:02.552Z,66.30
2023-05-24T19:55:30.652Z,66.60
2023-05-24T19:57:58.451Z,66.60
2023-05-24T20:00:26.327Z,66.70
2023-05-24T20:02:55.619Z,66.90
2023-05-24T20:05:41.348Z,67.60
2023-05-24T20:08:09.322Z,67.70
2023-05-24T20:10:38.865Z,68.40
2023-05-24T20:13:07.362Z,68.50
2023-05-24T20:15:35.216Z,69.10
2023-05-24T20:18:04.621Z,69.70
2023-05-24T20:20:32.605Z,70.60
2023-05-24T20:23:00.550Z,71.50
2023-05-24T20:25:28.612Z,71.90
2023-05-24T20:27:56.502Z,71.90
2023-05-24T20:30:24.455Z,71.70
2023-05-24T20:32:52.377Z,71.60
2023-05-24T20:35:21.577Z,71.60
2023-05-24T20:37:49.426Z,72.10
2023-05-24T20:40:22.881Z,72.90
2023-05-24T20:42:51.061Z,72.50
2023-05-24T20:45:19.524Z,72.60
2023-05-24T20:47:47.440Z,72.40
2023-05-24T20:50:15.575Z,72.20
2023-05-24T20:52:44.793Z,72.40
2023-05-24T20:55:12.643Z,71.90
2023-05-24T20:57:40.539Z,72.30
2023-05-24T21:00:10.194Z,72.00
2023-05-24T21:02:38.331Z,71.70
2023-05-24T21:05:06.930Z,71.50
2023-05-24T21:07:39.317Z,71.10
2023-05-24T21:10:09.667Z,70.40
2023-05-24T21:12:37.476Z,70.40
2023-05-24T21:15:05.869Z,70.50
2023-05-24T21:17:33.697Z,70.10
2023-05-24T21:20:01.566Z,69.80
2023-05-24T21:22:29.369Z,69.70
2023-05-24T21:24:57.463Z,69.60
2023-05-24T21:27:27.377Z,69.90
2023-05-24T21:29:55.338Z,69.60
2023-05-24T21:32:23.185Z,69.80
2023-05-24T21:34:51.019Z,70.20
2023-05-24T21:37:18.833Z,70.00
2023-05-24T21:39:47.221Z,70.20
2023-05-24T21:42:15.075Z,70.00
2023-05-24T21:44:44.201Z,69.50
2023-05-24T21:47:12.082Z,69.40
2023-05-24T21:49:39.920Z,69.80
2023-05-24T21:52:07.780Z,70.00
2023-05-24T21:54:35.623Z,70.10
2023-05-24T21:57:03.634Z,70.20
2023-05-24T21:59:31.457Z,70.20
2023-05-24T22:02:00.721Z,70.80
2023-05-24T22:04:28.560Z,70.90
2023-05-24T22:06:56.356Z,70.60
2023-05-24T22:09:24.205Z,70.90
2023-05-24T22:11:52.354Z,70.60
2023-05-24T22:14:20.229Z,70.30
2023-05-24T22:16:48.189Z,70.50
2023-05-24T22:19:25.375Z,69.60
2023-05-24T22:22:00.165Z,69.70
2023-05-24T22:24:28.231Z,69.90
2023-05-24T22:26:56.026Z,69.90
2023-05-24T22:29:23.854Z,70.30
2023-05-24T22:31:51.772Z,70.10
2023-05-24T22:34:28.410Z,70.10
2023-05-24T22:36:57.520Z,70.40
2023-05-24T22:39:25.850Z,70.30
2023-05-24T22:41:54.513Z,69.80
2023-05-24T22:44:22.452Z,70.10
2023-05-24T22:46:53.679Z,70.70
2023-05-24T22:49:22.001Z,70.90
2023-05-24T22:51:53.399Z,71.50
2023-05-24T22:54:21.261Z,71.90
2023-05-24T22:56:49.091Z,71.70
2023-05-24T22:59:17.236Z,71.60
2023-05-24T23:01:45.531Z,71.80
2023-05-24T23:04:20.367Z,72.00
2023-05-24T23:06:52.381Z,71.70
2023-05-24T23:09:34.510Z,71.80
2023-05-24T23:12:07.199Z,71.50
2023-05-24T23:14:38.271Z,71.60
2023-05-24T23:17:06.754Z,71.40
2023-05-24T23:19:34.648Z,71.80
2023-05-24T23:22:04.008Z,72.00
2023-05-24T23:24:31.873Z,72.10
2023-05-24T23:26:59.726Z,72.30
2023-05-24T23:29:27.723Z,72.60
2023-05-24T23:31:55.579Z,73.00
2023-05-24T23:34:23.432Z,72.90
2023-05-24T23:36:51.282Z,72.70
2023-05-24T23:39:20.449Z,72.90
2023-05-24T23:41:48.263Z,72.50
2023-05-24T23:44:16.189Z,72.50
2023-05-24T23:46:44.178Z,72.20
2023-05-24T23:49:12.741Z,72.30
2023-05-24T23:51:40.559Z,71.90
2023-05-24T23:54:08.413Z,71.60
2023-05-24T23:56:39.034Z,71.60
2023-05-24T23:59:07.015Z,71.60
